sensor_id;sensor_type;location;lat;lon;timestamp;P1;durP1;ratioP1;P2;durP2;ratioP2
70942;SDS011;59154;51.970;5.650;2022-08-05T00:00:03;6.8;;;3.3;;
70942;SDS011;59154;51.970;5.650;2022-08-05T00:05:02;7.0;;;3.2;;
70942;SDS011;59154;51.970;5.650;2022-08-05T00:10:03;5.2;;;3.2;;
70942;SDS011;59154;51.970;5.650;2022-08-05T00:15:02;9.6;;;3.5;;
70942;SDS011;59154;51.970;5.650;2022-08-05T00:20:03;6.1;;;3.7;;
70942;SDS011;59154;51.970;5.650;2022-08-05T00:25:02;6.2;;;4.0;;
70942;SDS011;59154;51.970;5.650;2022-08-05T00:30:03;5.8;;;4.0;;
70942;SDS011;59154;51.970;5.650;2022-08-05T00:35:02;6.9;;;3.7;;
70942;SDS011;59154;51.970;5.650;2022-08-05T00:40:03;5.9;;;3.8;;
70942;SDS011;59154;51.970;5.650;2022-08-05T00:45:03;5.8;;;3.5;;
70942;SDS011;59154;51.970;5.650;2022-08-05T00:50:03;6.6;;;3.6;;
70942;SDS011;59154;51.970;5.650;2022-08-05T00:55:03;8.6;;;3.9;;
70942;SDS011;59154;51.970;5.650;2022-08-05T01:00:03;5.8;;;4.1;;
70942;SDS011;59154;51.970;5.650;2022-08-05T01:05:02;7.7;;;3.7;;
70942;SDS011;59154;51.970;5.650;2022-08-05T01:10:02;6.1;;;3.7;;
70942;SDS011;59154;51.970;5.650;2022-08-05T01:15:03;7.5;;;4.1;;
70942;SDS011;59154;51.970;5.650;2022-08-05T01:20:07;6.8;;;3.9;;
70942;SDS011;59154;51.970;5.650;2022-08-05T01:25:07;6.4;;;3.3;;
70942;SDS011;59154;51.970;5.650;2022-08-05T01:30:03;6.1;;;3.1;;
70942;SDS011;59154;51.970;5.650;2022-08-05T01:35:03;4.8;;;2.8;;
70942;SDS011;59154;51.970;5.650;2022-08-05T01:40:03;7.3;;;3.9;;
70942;SDS011;59154;51.970;5.650;2022-08-05T01:45:03;6.3;;;3.4;;
70942;SDS011;59154;51.970;5.650;2022-08-05T01:50:03;7.6;;;3.7;;
70942;SDS011;59154;51.970;5.650;2022-08-05T01:55:03;5.7;;;3.2;;
70942;SDS011;59154;51.970;5.650;2022-08-05T02:00:03;6.7;;;3.2;;
70942;SDS011;59154;51.970;5.650;2022-08-05T02:05:04;9.9;;;4.0;;
70942;SDS011;59154;51.970;5.650;2022-08-05T02:10:02;9.2;;;4.0;;
70942;SDS011;59154;51.970;5.650;2022-08-05T02:15:04;5.2;;;3.7;;
70942;SDS011;59154;51.970;5.650;2022-08-05T02:20:04;7.8;;;4.1;;
70942;SDS011;59154;51.970;5.650;2022-08-05T02:25:04;6.0;;;3.4;;
70942;SDS011;59154;51.970;5.650;2022-08-05T02:30:03;5.8;;;3.1;;
70942;SDS011;59154;51.970;5.650;2022-08-05T02:35:05;5.5;;;3.3;;
70942;SDS011;59154;51.970;5.650;2022-08-05T02:40:03;5.0;;;3.3;;
70942;SDS011;59154;51.970;5.650;2022-08-05T02:45:02;7.6;;;3.2;;
70942;SDS011;59154;51.970;5.650;2022-08-05T02:50:02;9.3;;;3.4;;
70942;SDS011;59154;51.970;5.650;2022-08-05T02:55:03;7.0;;;3.5;;
70942;SDS011;59154;51.970;5.650;2022-08-05T03:00:03;5.5;;;3.6;;
70942;SDS011;59154;51.970;5.650;2022-08-05T03:05:02;5.0;;;3.7;;
70942;SDS011;59154;51.970;5.650;2022-08-05T03:10:03;9.6;;;4.2;;
70942;SDS011;59154;51.970;5.650;2022-08-05T03:15:02;9.4;;;4.0;;
70942;SDS011;59154;51.970;5.650;2022-08-05T03:20:04;6.7;;;4.2;;
70942;SDS011;59154;51.970;5.650;2022-08-05T03:25:03;9.1;;;3.7;;
70942;SDS011;59154;51.970;5.650;2022-08-05T03:30:03;8.7;;;4.0;;
70942;SDS011;59154;51.970;5.650;2022-08-05T03:35:03;10.9;;;3.8;;
70942;SDS011;59154;51.970;5.650;2022-08-05T03:40:03;6.2;;;3.6;;
70942;SDS011;59154;51.970;5.650;2022-08-05T03:45:02;6.6;;;3.4;;
70942;SDS011;59154;51.970;5.650;2022-08-05T03:50:02;7.6;;;3.5;;
70942;SDS011;59154;51.970;5.650;2022-08-05T03:55:03;8.3;;;3.1;;
70942;SDS011;59154;51.970;5.650;2022-08-05T04:00:04;6.1;;;3.4;;
70942;SDS011;59154;51.970;5.650;2022-08-05T04:05:03;6.7;;;3.6;;
70942;SDS011;59154;51.970;5.650;2022-08-05T04:10:02;5.7;;;3.5;;
70942;SDS011;59154;51.970;5.650;2022-08-05T04:15:03;6.3;;;3.5;;
70942;SDS011;59154;51.970;5.650;2022-08-05T04:20:03;7.5;;;3.6;;
70942;SDS011;59154;51.970;5.650;2022-08-05T04:25:02;5.4;;;3.2;;
70942;SDS011;59154;51.970;5.650;2022-08-05T04:30:02;7.4;;;3.4;;
70942;SDS011;59154;51.970;5.650;2022-08-05T04:35:02;6.8;;;3.4;;
70942;SDS011;59154;51.970;5.650;2022-08-05T04:40:04;7.9;;;4.0;;
70942;SDS011;59154;51.970;5.650;2022-08-05T04:45:03;6.4;;;3.9;;
70942;SDS011;59154;51.970;5.650;2022-08-05T04:50:03;9.3;;;3.8;;
70942;SDS011;59154;51.970;5.650;2022-08-05T04:55:02;5.0;;;3.5;;
70942;SDS011;59154;51.970;5.650;2022-08-05T05:00:04;7.7;;;4.0;;
70942;SDS011;59154;51.970;5.650;2022-08-05T05:05:02;6.2;;;3.4;;
70942;SDS011;59154;51.970;5.650;2022-08-05T05:10:03;6.8;;;3.3;;
70942;SDS011;59154;51.970;5.650;2022-08-05T05:15:02;6.7;;;3.5;;
70942;SDS011;59154;51.970;5.650;2022-08-05T05:20:03;6.1;;;3.7;;
70942;SDS011;59154;51.970;5.650;2022-08-05T05:25:02;7.5;;;4.5;;
70942;SDS011;59154;51.970;5.650;2022-08-05T05:30:03;5.8;;;3.6;;
70942;SDS011;59154;51.970;5.650;2022-08-05T05:35:02;7.9;;;4.0;;
70942;SDS011;59154;51.970;5.650;2022-08-05T05:40:03;6.7;;;3.4;;
70942;SDS011;59154;51.970;5.650;2022-08-05T05:45:02;7.7;;;3.5;;
70942;SDS011;59154;51.970;5.650;2022-08-05T05:50:03;4.5;;;3.2;;
70942;SDS011;59154;51.970;5.650;2022-08-05T05:55:02;8.1;;;3.8;;
70942;SDS011;59154;51.970;5.650;2022-08-05T06:00:03;6.4;;;3.5;;
70942;SDS011;59154;51.970;5.650;2022-08-05T06:05:02;8.4;;;3.8;;
70942;SDS011;59154;51.970;5.650;2022-08-05T06:10:02;7.0;;;3.5;;
70942;SDS011;59154;51.970;5.650;2022-08-05T06:15:03;4.7;;;3.1;;
70942;SDS011;59154;51.970;5.650;2022-08-05T06:20:03;8.2;;;3.1;;
70942;SDS011;59154;51.970;5.650;2022-08-05T06:25:02;6.6;;;3.2;;
70942;SDS011;59154;51.970;5.650;2022-08-05T06:30:03;7.6;;;3.5;;
70942;SDS011;59154;51.970;5.650;2022-08-05T06:35:03;4.7;;;3.5;;
70942;SDS011;59154;51.970;5.650;2022-08-05T06:40:03;5.6;;;3.5;;
70942;SDS011;59154;51.970;5.650;2022-08-05T06:45:02;4.9;;;3.5;;
70942;SDS011;59154;51.970;5.650;2022-08-05T06:50:03;7.4;;;3.9;;
70942;SDS011;59154;51.970;5.650;2022-08-05T06:55:02;7.4;;;3.9;;
70942;SDS011;59154;51.970;5.650;2022-08-05T07:00:03;5.8;;;3.6;;
70942;SDS011;59154;51.970;5.650;2022-08-05T07:05:02;5.7;;;3.1;;
70942;SDS011;59154;51.970;5.650;2022-08-05T07:10:03;6.3;;;3.7;;
70942;SDS011;59154;51.970;5.650;2022-08-05T07:15:02;4.8;;;3.2;;
70942;SDS011;59154;51.970;5.650;2022-08-05T07:20:03;6.9;;;3.2;;
70942;SDS011;59154;51.970;5.650;2022-08-05T07:25:03;3.8;;;2.7;;
70942;SDS011;59154;51.970;5.650;2022-08-05T07:30:03;4.7;;;2.6;;
70942;SDS011;59154;51.970;5.650;2022-08-05T07:35:05;5.2;;;2.7;;
70942;SDS011;59154;51.970;5.650;2022-08-05T07:40:05;4.4;;;2.7;;
70942;SDS011;59154;51.970;5.650;2022-08-05T07:45:03;4.0;;;2.5;;
70942;SDS011;59154;51.970;5.650;2022-08-05T07:50:03;6.1;;;2.5;;
70942;SDS011;59154;51.970;5.650;2022-08-05T07:55:02;6.1;;;3.0;;
70942;SDS011;59154;51.970;5.650;2022-08-05T08:00:04;5.2;;;2.5;;
70942;SDS011;59154;51.970;5.650;2022-08-05T08:05:02;5.9;;;2.6;;
70942;SDS011;59154;51.970;5.650;2022-08-05T08:10:03;5.5;;;2.7;;
70942;SDS011;59154;51.970;5.650;2022-08-05T08:15:03;6.6;;;2.5;;
70942;SDS011;59154;51.970;5.650;2022-08-05T08:20:03;7.0;;;2.4;;
70942;SDS011;59154;51.970;5.650;2022-08-05T08:25:02;2.8;;;2.2;;
70942;SDS011;59154;51.970;5.650;2022-08-05T08:30:02;5.2;;;2.3;;
70942;SDS011;59154;51.970;5.650;2022-08-05T08:35:02;4.3;;;2.1;;
70942;SDS011;59154;51.970;5.650;2022-08-05T08:40:03;4.3;;;1.7;;
70942;SDS011;59154;51.970;5.650;2022-08-05T08:45:02;5.0;;;1.4;;
70942;SDS011;59154;51.970;5.650;2022-08-05T08:50:03;4.3;;;1.4;;
70942;SDS011;59154;51.970;5.650;2022-08-05T08:55:03;1.5;;;1.1;;
70942;SDS011;59154;51.970;5.650;2022-08-05T09:00:03;2.4;;;1.1;;
70942;SDS011;59154;51.970;5.650;2022-08-05T09:05:02;4.7;;;1.2;;
70942;SDS011;59154;51.970;5.650;2022-08-05T09:10:03;0.8;;;0.8;;
70942;SDS011;59154;51.970;5.650;2022-08-05T09:15:02;2.8;;;1.1;;
70942;SDS011;59154;51.970;5.650;2022-08-05T09:20:04;1.7;;;0.8;;
70942;SDS011;59154;51.970;5.650;2022-08-05T09:25:03;1.2;;;0.8;;
70942;SDS011;59154;51.970;5.650;2022-08-05T09:30:02;0.9;;;0.6;;
70942;SDS011;59154;51.970;5.650;2022-08-05T09:35:08;2.5;;;0.9;;
70942;SDS011;59154;51.970;5.650;2022-08-05T09:40:03;2.1;;;0.9;;
70942;SDS011;59154;51.970;5.650;2022-08-05T09:45:05;1.5;;;0.8;;
70942;SDS011;59154;51.970;5.650;2022-08-05T09:50:03;4.5;;;1.2;;
70942;SDS011;59154;51.970;5.650;2022-08-05T09:55:03;0.6;;;0.5;;
70942;SDS011;59154;51.970;5.650;2022-08-05T10:00:05;2.1;;;1.0;;
70942;SDS011;59154;51.970;5.650;2022-08-05T10:05:03;3.0;;;0.7;;
70942;SDS011;59154;51.970;5.650;2022-08-05T10:10:02;1.1;;;0.9;;
70942;SDS011;59154;51.970;5.650;2022-08-05T10:15:12;1.5;;;0.8;;
70942;SDS011;59154;51.970;5.650;2022-08-05T10:20:04;1.8;;;0.8;;
70942;SDS011;59154;51.970;5.650;2022-08-05T10:25:03;3.2;;;0.8;;
70942;SDS011;59154;51.970;5.650;2022-08-05T10:30:03;1.3;;;0.9;;
70942;SDS011;59154;51.970;5.650;2022-08-05T10:35:02;1.3;;;0.7;;
70942;SDS011;59154;51.970;5.650;2022-08-05T10:40:03;0.8;;;0.6;;
70942;SDS011;59154;51.970;5.650;2022-08-05T10:45:02;1.9;;;0.8;;
70942;SDS011;59154;51.970;5.650;2022-08-05T10:50:04;2.2;;;0.8;;
70942;SDS011;59154;51.970;5.650;2022-08-05T10:55:04;2.2;;;0.9;;
70942;SDS011;59154;51.970;5.650;2022-08-05T11:00:07;1.4;;;0.8;;
70942;SDS011;59154;51.970;5.650;2022-08-05T11:05:03;1.7;;;0.8;;
70942;SDS011;59154;51.970;5.650;2022-08-05T11:10:02;2.5;;;1.1;;
70942;SDS011;59154;51.970;5.650;2022-08-05T11:15:04;3.9;;;1.2;;
70942;SDS011;59154;51.970;5.650;2022-08-05T11:20:02;3.3;;;1.0;;
70942;SDS011;59154;51.970;5.650;2022-08-05T11:25:35;1.3;;;0.9;;
70942;SDS011;59154;51.970;5.650;2022-08-05T11:30:03;2.6;;;0.7;;
70942;SDS011;59154;51.970;5.650;2022-08-05T11:35:02;2.9;;;0.8;;
70942;SDS011;59154;51.970;5.650;2022-08-05T11:40:02;2.3;;;0.7;;
70942;SDS011;59154;51.970;5.650;2022-08-05T11:45:03;1.2;;;0.7;;
70942;SDS011;59154;51.970;5.650;2022-08-05T11:50:02;1.6;;;0.6;;
70942;SDS011;59154;51.970;5.650;2022-08-05T11:55:03;2.0;;;0.9;;
70942;SDS011;59154;51.970;5.650;2022-08-05T12:00:03;2.5;;;0.9;;
70942;SDS011;59154;51.970;5.650;2022-08-05T12:05:02;1.2;;;0.6;;
70942;SDS011;59154;51.970;5.650;2022-08-05T12:10:03;1.0;;;0.6;;
70942;SDS011;59154;51.970;5.650;2022-08-05T12:15:03;0.8;;;0.6;;
70942;SDS011;59154;51.970;5.650;2022-08-05T12:20:03;2.2;;;0.9;;
70942;SDS011;59154;51.970;5.650;2022-08-05T12:25:03;2.5;;;1.0;;
70942;SDS011;59154;51.970;5.650;2022-08-05T12:30:04;3.7;;;0.8;;
70942;SDS011;59154;51.970;5.650;2022-08-05T12:35:02;1.7;;;0.9;;
70942;SDS011;59154;51.970;5.650;2022-08-05T12:40:05;2.2;;;0.9;;
70942;SDS011;59154;51.970;5.650;2022-08-05T12:45:04;1.8;;;0.8;;
70942;SDS011;59154;51.970;5.650;2022-08-05T12:50:11;2.5;;;0.8;;
70942;SDS011;59154;51.970;5.650;2022-08-05T12:55:07;1.5;;;0.7;;
70942;SDS011;59154;51.970;5.650;2022-08-05T13:00:03;2.9;;;0.7;;
70942;SDS011;59154;51.970;5.650;2022-08-05T13:05:04;2.4;;;1.0;;
70942;SDS011;59154;51.970;5.650;2022-08-05T13:10:03;2.8;;;0.9;;
70942;SDS011;59154;51.970;5.650;2022-08-05T13:15:02;1.9;;;0.8;;
70942;SDS011;59154;51.970;5.650;2022-08-05T13:20:04;1.5;;;0.8;;
70942;SDS011;59154;51.970;5.650;2022-08-05T13:25:03;1.0;;;0.7;;
70942;SDS011;59154;51.970;5.650;2022-08-05T13:30:03;2.3;;;0.9;;
70942;SDS011;59154;51.970;5.650;2022-08-05T13:35:02;1.5;;;0.9;;
70942;SDS011;59154;51.970;5.650;2022-08-05T13:40:03;2.4;;;1.2;;
70942;SDS011;59154;51.970;5.650;2022-08-05T13:45:03;1.9;;;0.8;;
70942;SDS011;59154;51.970;5.650;2022-08-05T13:50:03;1.5;;;0.9;;
70942;SDS011;59154;51.970;5.650;2022-08-05T13:55:02;1.7;;;0.9;;
70942;SDS011;59154;51.970;5.650;2022-08-05T14:00:03;1.2;;;1.1;;
70942;SDS011;59154;51.970;5.650;2022-08-05T14:05:02;2.1;;;1.2;;
70942;SDS011;59154;51.970;5.650;2022-08-05T14:10:04;2.5;;;0.8;;
70942;SDS011;59154;51.970;5.650;2022-08-05T14:15:03;4.0;;;0.9;;
70942;SDS011;59154;51.970;5.650;2022-08-05T14:20:03;3.9;;;0.9;;
70942;SDS011;59154;51.970;5.650;2022-08-05T14:25:02;0.7;;;0.7;;
70942;SDS011;59154;51.970;5.650;2022-08-05T14:30:02;1.9;;;1.0;;
70942;SDS011;59154;51.970;5.650;2022-08-05T14:35:02;2.8;;;1.0;;
70942;SDS011;59154;51.970;5.650;2022-08-05T14:40:03;2.9;;;1.3;;
70942;SDS011;59154;51.970;5.650;2022-08-05T14:45:02;1.9;;;0.9;;
70942;SDS011;59154;51.970;5.650;2022-08-05T14:50:02;2.6;;;0.9;;
70942;SDS011;59154;51.970;5.650;2022-08-05T14:55:02;1.7;;;1.2;;
70942;SDS011;59154;51.970;5.650;2022-08-05T15:00:03;2.5;;;1.0;;
70942;SDS011;59154;51.970;5.650;2022-08-05T15:05:02;3.9;;;1.2;;
70942;SDS011;59154;51.970;5.650;2022-08-05T15:10:03;1.5;;;0.8;;
70942;SDS011;59154;51.970;5.650;2022-08-05T15:15:02;2.0;;;1.0;;
70942;SDS011;59154;51.970;5.650;2022-08-05T15:20:03;1.0;;;0.8;;
70942;SDS011;59154;51.970;5.650;2022-08-05T15:25:02;1.5;;;0.9;;
70942;SDS011;59154;51.970;5.650;2022-08-05T15:30:03;1.9;;;0.8;;
70942;SDS011;59154;51.970;5.650;2022-08-05T15:35:02;3.0;;;0.7;;
70942;SDS011;59154;51.970;5.650;2022-08-05T15:40:03;1.0;;;0.9;;
70942;SDS011;59154;51.970;5.650;2022-08-05T15:45:02;1.0;;;0.8;;
70942;SDS011;59154;51.970;5.650;2022-08-05T15:50:02;1.5;;;0.8;;
70942;SDS011;59154;51.970;5.650;2022-08-05T15:55:02;2.0;;;1.1;;
70942;SDS011;59154;51.970;5.650;2022-08-05T16:00:04;3.4;;;0.8;;
70942;SDS011;59154;51.970;5.650;2022-08-05T16:05:02;1.9;;;0.8;;
70942;SDS011;59154;51.970;5.650;2022-08-05T16:10:03;3.0;;;0.9;;
70942;SDS011;59154;51.970;5.650;2022-08-05T16:15:02;3.6;;;1.3;;
70942;SDS011;59154;51.970;5.650;2022-08-05T16:20:03;3.3;;;1.1;;
70942;SDS011;59154;51.970;5.650;2022-08-05T16:25:02;1.6;;;1.1;;
70942;SDS011;59154;51.970;5.650;2022-08-05T16:30:03;2.1;;;0.9;;
70942;SDS011;59154;51.970;5.650;2022-08-05T16:35:02;4.0;;;1.2;;
70942;SDS011;59154;51.970;5.650;2022-08-05T16:40:03;2.2;;;1.1;;
70942;SDS011;59154;51.970;5.650;2022-08-05T16:45:02;1.9;;;1.0;;
70942;SDS011;59154;51.970;5.650;2022-08-05T16:50:03;0.7;;;0.7;;
70942;SDS011;59154;51.970;5.650;2022-08-05T16:55:02;4.3;;;1.1;;
70942;SDS011;59154;51.970;5.650;2022-08-05T17:00:03;4.9;;;1.1;;
70942;SDS011;59154;51.970;5.650;2022-08-05T17:05:02;2.4;;;1.0;;
70942;SDS011;59154;51.970;5.650;2022-08-05T17:10:03;2.5;;;1.0;;
70942;SDS011;59154;51.970;5.650;2022-08-05T17:15:02;2.9;;;0.7;;
70942;SDS011;59154;51.970;5.650;2022-08-05T17:20:04;2.4;;;1.1;;
70942;SDS011;59154;51.970;5.650;2022-08-05T17:25:02;1.5;;;0.9;;
70942;SDS011;59154;51.970;5.650;2022-08-05T17:30:03;2.0;;;1.0;;
70942;SDS011;59154;51.970;5.650;2022-08-05T17:35:03;0.8;;;0.7;;
70942;SDS011;59154;51.970;5.650;2022-08-05T17:40:04;2.4;;;0.9;;
70942;SDS011;59154;51.970;5.650;2022-08-05T17:45:03;2.9;;;1.1;;
70942;SDS011;59154;51.970;5.650;2022-08-05T17:50:03;1.4;;;1.1;;
70942;SDS011;59154;51.970;5.650;2022-08-05T17:55:02;1.5;;;0.9;;
70942;SDS011;59154;51.970;5.650;2022-08-05T18:00:04;2.9;;;1.5;;
70942;SDS011;59154;51.970;5.650;2022-08-05T18:05:03;2.5;;;1.0;;
70942;SDS011;59154;51.970;5.650;2022-08-05T18:10:03;4.5;;;1.1;;
70942;SDS011;59154;51.970;5.650;2022-08-05T18:15:02;4.3;;;1.0;;
70942;SDS011;59154;51.970;5.650;2022-08-05T18:20:04;5.9;;;1.0;;
70942;SDS011;59154;51.970;5.650;2022-08-05T18:25:03;4.4;;;1.2;;
70942;SDS011;59154;51.970;5.650;2022-08-05T18:30:03;3.6;;;1.4;;
70942;SDS011;59154;51.970;5.650;2022-08-05T18:35:03;3.4;;;1.1;;
70942;SDS011;59154;51.970;5.650;2022-08-05T18:40:03;1.6;;;0.9;;
70942;SDS011;59154;51.970;5.650;2022-08-05T18:45:02;3.8;;;1.1;;
70942;SDS011;59154;51.970;5.650;2022-08-05T18:50:03;3.0;;;1.1;;
70942;SDS011;59154;51.970;5.650;2022-08-05T18:55:04;4.2;;;1.4;;
70942;SDS011;59154;51.970;5.650;2022-08-05T19:00:04;3.8;;;1.3;;
70942;SDS011;59154;51.970;5.650;2022-08-05T19:05:03;6.1;;;1.7;;
70942;SDS011;59154;51.970;5.650;2022-08-05T19:10:02;3.2;;;1.4;;
70942;SDS011;59154;51.970;5.650;2022-08-05T19:15:02;6.4;;;1.7;;
70942;SDS011;59154;51.970;5.650;2022-08-05T19:20:03;3.8;;;1.5;;
70942;SDS011;59154;51.970;5.650;2022-08-05T19:25:02;3.7;;;1.3;;
70942;SDS011;59154;51.970;5.650;2022-08-05T19:30:03;7.3;;;1.4;;
70942;SDS011;59154;51.970;5.650;2022-08-05T19:35:02;4.6;;;1.4;;
70942;SDS011;59154;51.970;5.650;2022-08-05T19:40:04;2.9;;;1.2;;
70942;SDS011;59154;51.970;5.650;2022-08-05T19:45:02;6.0;;;1.6;;
70942;SDS011;59154;51.970;5.650;2022-08-05T19:50:03;3.5;;;1.4;;
70942;SDS011;59154;51.970;5.650;2022-08-05T19:55:03;4.2;;;1.5;;
70942;SDS011;59154;51.970;5.650;2022-08-05T20:00:04;2.8;;;1.2;;
70942;SDS011;59154;51.970;5.650;2022-08-05T20:05:02;3.3;;;1.3;;
70942;SDS011;59154;51.970;5.650;2022-08-05T20:10:02;4.8;;;1.4;;
70942;SDS011;59154;51.970;5.650;2022-08-05T20:15:03;2.7;;;1.4;;
70942;SDS011;59154;51.970;5.650;2022-08-05T20:20:04;4.8;;;1.5;;
70942;SDS011;59154;51.970;5.650;2022-08-05T20:25:02;5.1;;;1.6;;
70942;SDS011;59154;51.970;5.650;2022-08-05T20:30:03;2.3;;;1.3;;
70942;SDS011;59154;51.970;5.650;2022-08-05T20:35:02;6.9;;;1.6;;
70942;SDS011;59154;51.970;5.650;2022-08-05T20:40:03;3.8;;;1.6;;
70942;SDS011;59154;51.970;5.650;2022-08-05T20:45:03;3.4;;;1.5;;
70942;SDS011;59154;51.970;5.650;2022-08-05T20:50:03;5.2;;;1.6;;
70942;SDS011;59154;51.970;5.650;2022-08-05T20:55:02;3.5;;;1.5;;
70942;SDS011;59154;51.970;5.650;2022-08-05T21:00:03;4.4;;;1.6;;
70942;SDS011;59154;51.970;5.650;2022-08-05T21:05:02;2.1;;;1.6;;
70942;SDS011;59154;51.970;5.650;2022-08-05T21:10:03;4.5;;;1.7;;
70942;SDS011;59154;51.970;5.650;2022-08-05T21:15:03;4.1;;;1.5;;
70942;SDS011;59154;51.970;5.650;2022-08-05T21:20:03;2.9;;;1.5;;
70942;SDS011;59154;51.970;5.650;2022-08-05T21:25:02;5.5;;;1.9;;
70942;SDS011;59154;51.970;5.650;2022-08-05T21:30:02;4.7;;;2.0;;
70942;SDS011;59154;51.970;5.650;2022-08-05T21:35:02;2.6;;;1.5;;
70942;SDS011;59154;51.970;5.650;2022-08-05T21:40:04;3.8;;;1.8;;
70942;SDS011;59154;51.970;5.650;2022-08-05T21:45:02;4.3;;;2.0;;
70942;SDS011;59154;51.970;5.650;2022-08-05T21:50:02;4.0;;;1.9;;
70942;SDS011;59154;51.970;5.650;2022-08-05T21:55:03;4.8;;;1.8;;
70942;SDS011;59154;51.970;5.650;2022-08-05T22:00:04;5.0;;;1.8;;
70942;SDS011;59154;51.970;5.650;2022-08-05T22:05:02;4.7;;;2.1;;
70942;SDS011;59154;51.970;5.650;2022-08-05T22:10:03;5.1;;;1.9;;
70942;SDS011;59154;51.970;5.650;2022-08-05T22:15:03;4.1;;;1.7;;
70942;SDS011;59154;51.970;5.650;2022-08-05T22:20:04;3.3;;;1.7;;
70942;SDS011;59154;51.970;5.650;2022-08-05T22:25:02;4.5;;;1.8;;
70942;SDS011;59154;51.970;5.650;2022-08-05T22:30:03;6.6;;;2.0;;
70942;SDS011;59154;51.970;5.650;2022-08-05T22:35:02;3.6;;;1.6;;
70942;SDS011;59154;51.970;5.650;2022-08-05T22:40:03;6.1;;;2.0;;
70942;SDS011;59154;51.970;5.650;2022-08-05T22:45:02;3.3;;;1.3;;
70942;SDS011;59154;51.970;5.650;2022-08-05T22:50:03;3.9;;;2.0;;
70942;SDS011;59154;51.970;5.650;2022-08-05T22:55:03;4.4;;;2.0;;
70942;SDS011;59154;51.970;5.650;2022-08-05T23:00:03;4.8;;;2.0;;
70942;SDS011;59154;51.970;5.650;2022-08-05T23:05:02;2.4;;;1.8;;
70942;SDS011;59154;51.970;5.650;2022-08-05T23:10:03;5.9;;;1.8;;
70942;SDS011;59154;51.970;5.650;2022-08-05T23:15:02;5.8;;;1.7;;
70942;SDS011;59154;51.970;5.650;2022-08-05T23:20:05;4.5;;;1.8;;
70942;SDS011;59154;51.970;5.650;2022-08-05T23:25:02;2.9;;;2.1;;
70942;SDS011;59154;51.970;5.650;2022-08-05T23:30:03;4.8;;;2.1;;
70942;SDS011;59154;51.970;5.650;2022-08-05T23:35:02;2.8;;;1.7;;
70942;SDS011;59154;51.970;5.650;2022-08-05T23:40:04;5.3;;;2.4;;
70942;SDS011;59154;51.970;5.650;2022-08-05T23:45:03;4.4;;;2.2;;
70942;SDS011;59154;51.970;5.650;2022-08-05T23:50:02;5.1;;;2.0;;
70942;SDS011;59154;51.970;5.650;2022-08-05T23:55:03;4.7;;;1.7;;
